createdAt,value
2017-08-02T00:00:56.212Z,0
2017-08-02T00:02:06.124Z,0
2017-08-02T00:03:16.720Z,0
2017-08-02T00:04:26.337Z,0
2017-08-02T00:05:35.967Z,0
2017-08-02T00:06:45.908Z,0
2017-08-02T00:07:56.194Z,0
2017-08-02T00:09:06.422Z,0
2017-08-02T00:10:16.694Z,0
2017-08-02T00:11:26.645Z,0
2017-08-02T00:12:36.267Z,0
2017-08-02T00:13:46.177Z,0
2017-08-02T00:14:56.116Z,0
2017-08-02T00:16:06.353Z,0
2017-08-02T00:17:15.959Z,0
2017-08-02T00:18:26.202Z,0
2017-08-02T00:19:35.998Z,0
2017-08-02T00:20:45.917Z,0
2017-08-02T00:21:55.842Z,0
2017-08-02T00:23:05.775Z,0
2017-08-02T00:24:15.734Z,0
2017-08-02T00:25:25.755Z,0
2017-08-02T00:26:35.688Z,0
2017-08-02T00:27:45.350Z,0
2017-08-02T00:28:54.986Z,0
2017-08-02T00:30:05.226Z,0
2017-08-02T00:31:15.198Z,0
2017-08-02T00:32:25.460Z,0
2017-08-02T00:33:35.374Z,0
2017-08-02T00:34:45.664Z,0
2017-08-02T00:35:55.602Z,0
2017-08-02T00:37:06.137Z,0
2017-08-02T00:38:15.774Z,0
2017-08-02T00:39:25.998Z,0
2017-08-02T00:40:36.241Z,0
2017-08-02T00:41:45.278Z,0
2017-08-02T00:42:55.679Z,0
2017-08-02T00:44:05.306Z,0
2017-08-02T00:45:15.276Z,0
2017-08-02T00:46:24.888Z,0
2017-08-02T00:47:35.143Z,0
2017-08-02T00:48:45.492Z,0
2017-08-02T00:49:55.456Z,0
2017-08-02T00:51:05.376Z,0
2017-08-02T00:52:15.301Z,0
2017-08-02T00:53:24.659Z,0
2017-08-02T00:54:34.944Z,0
2017-08-02T00:55:45.185Z,0
2017-08-02T00:56:55.124Z,0
2017-08-02T00:58:04.742Z,0
2017-08-02T00:59:14.372Z,0
2017-08-02T01:00:23.986Z,0
2017-08-02T01:01:33.899Z,0
2017-08-02T01:02:43.546Z,0
2017-08-02T01:03:53.163Z,0
2017-08-02T01:05:03.089Z,0
2017-08-02T01:06:12.845Z,0
2017-08-02T01:07:22.762Z,0
2017-08-02T01:08:32.690Z,0
2017-08-02T01:09:42.325Z,0
2017-08-02T01:10:52.249Z,0
2017-08-02T01:12:02.588Z,0
2017-08-02T01:13:12.525Z,0
2017-08-02T01:14:22.462Z,0
2017-08-02T01:15:32.085Z,0
2017-08-02T01:16:42.312Z,0
2017-08-02T01:17:52.024Z,0
2017-08-02T01:19:01.641Z,0
2017-08-02T01:20:11.558Z,0
2017-08-02T01:21:21.779Z,0
2017-08-02T01:22:31.082Z,0
2017-08-02T01:23:41.018Z,0
2017-08-02T01:24:50.655Z,0
2017-08-02T01:26:00.621Z,0
2017-08-02T01:27:10.276Z,0
2017-08-02T01:28:20.204Z,0
2017-08-02T01:29:29.979Z,0
2017-08-02T01:30:40.200Z,0
2017-08-02T01:31:50.128Z,0
2017-08-02T01:33:00.086Z,0
2017-08-02T01:34:09.429Z,0
2017-08-02T01:35:19.659Z,0
2017-08-02T01:36:29.587Z,0
2017-08-02T01:37:39.824Z,0
2017-08-02T01:38:49.769Z,0
2017-08-02T01:39:59.396Z,0
2017-08-02T01:41:09.171Z,0
2017-08-02T01:42:19.413Z,0
2017-08-02T01:43:29.330Z,0
2017-08-02T01:44:39.252Z,0
2017-08-02T01:45:48.876Z,0
2017-08-02T01:46:59.137Z,0
2017-08-02T01:48:08.762Z,0
2017-08-02T01:49:18.993Z,0
2017-08-02T01:50:29.230Z,0
2017-08-02T01:51:38.850Z,0
2017-08-02T01:52:49.174Z,0
2017-08-02T01:53:59.411Z,0
2017-08-02T01:55:09.333Z,0
2017-08-02T01:56:19.569Z,0
2017-08-02T01:57:29.190Z,0
2017-08-02T01:58:39.112Z,0
2017-08-02T01:59:48.435Z,0
2017-08-02T02:00:58.684Z,0
2017-08-02T02:02:08.916Z,0
2017-08-02T02:03:19.156Z,0
2017-08-02T02:04:29.131Z,0
2017-08-02T02:05:39.396Z,0
2017-08-02T02:06:48.746Z,0
2017-08-02T02:07:58.363Z,0
2017-08-02T02:09:08.583Z,0
2017-08-02T02:10:18.317Z,0
2017-08-02T02:11:28.242Z,0
2017-08-02T02:12:37.227Z,0
2017-08-02T02:13:47.146Z,0
2017-08-02T02:14:57.078Z,0
2017-08-02T02:16:07.151Z,0
2017-08-02T02:17:17.087Z,0
2017-08-02T02:18:26.697Z,0
2017-08-02T02:19:36.609Z,0
2017-08-02T02:20:45.925Z,0
2017-08-02T02:21:54.922Z,0
2017-08-02T02:23:04.847Z,0
2017-08-02T02:24:15.091Z,0
2017-08-02T02:25:25.319Z,0
2017-08-02T02:26:34.935Z,0
2017-08-02T02:27:45.139Z,0
2017-08-02T02:28:55.055Z,0
2017-08-02T02:30:04.988Z,0
2017-08-02T02:31:14.913Z,0
2017-08-02T02:32:25.139Z,0
2017-08-02T02:33:35.201Z,0
2017-08-02T02:34:44.516Z,0
2017-08-02T02:35:54.752Z,0
2017-08-02T02:37:04.380Z,0
2017-08-02T02:38:14.354Z,0
2017-08-02T02:39:24.132Z,0
2017-08-02T02:40:34.369Z,0
2017-08-02T02:41:43.984Z,0
2017-08-02T02:42:54.212Z,0
2017-08-02T02:44:04.436Z,0
2017-08-02T02:45:14.819Z,0
2017-08-02T02:46:25.034Z,0
2017-08-02T02:47:34.972Z,0
2017-08-02T02:48:44.596Z,0
2017-08-02T02:49:54.553Z,0
2017-08-02T02:51:04.956Z,0
2017-08-02T02:52:14.266Z,0
2017-08-02T02:53:24.190Z,0
2017-08-02T02:54:33.809Z,0
2017-08-02T02:55:43.727Z,0
2017-08-02T02:56:54.105Z,0
2017-08-02T02:58:03.404Z,0
2017-08-02T02:59:13.029Z,0
2017-08-02T03:00:23.258Z,0
2017-08-02T03:01:32.869Z,0
2017-08-02T03:02:42.645Z,0
2017-08-02T03:03:52.272Z,0
2017-08-02T03:05:02.202Z,0
2017-08-02T03:06:12.145Z,0
2017-08-02T03:07:21.784Z,0
2017-08-02T03:08:31.707Z,0
2017-08-02T03:09:41.019Z,0
2017-08-02T03:10:51.235Z,0
2017-08-02T03:12:01.170Z,0
2017-08-02T03:13:11.085Z,0
2017-08-02T03:14:21.467Z,0
2017-08-02T03:15:31.381Z,0
2017-08-02T03:16:41.600Z,0
2017-08-02T03:17:51.528Z,0
2017-08-02T03:19:01.453Z,0
2017-08-02T03:20:11.359Z,0
2017-08-02T03:21:21.603Z,0
2017-08-02T03:22:31.553Z,0
2017-08-02T03:23:40.574Z,0
2017-08-02T03:24:50.497Z,0
2017-08-02T03:26:00.566Z,0
2017-08-02T03:27:10.186Z,0
2017-08-02T03:28:20.115Z,0
2017-08-02T03:29:30.342Z,0
2017-08-02T03:30:39.953Z,0
2017-08-02T03:31:50.044Z,0
2017-08-02T03:32:59.955Z,0
2017-08-02T03:34:09.312Z,0
2017-08-02T03:35:19.542Z,0
2017-08-02T03:36:29.162Z,0
2017-08-02T03:37:39.540Z,0
2017-08-02T03:38:49.164Z,0
2017-08-02T03:39:58.777Z,4
2017-08-02T03:41:08.720Z,4
2017-08-02T03:42:19.327Z,4
2017-08-02T03:43:29.719Z,4
2017-08-02T03:44:39.666Z,4
2017-08-02T03:45:49.284Z,4
2017-08-02T03:46:59.203Z,8
2017-08-02T03:48:09.436Z,8
2017-08-02T03:49:19.747Z,8
2017-08-02T03:50:29.667Z,8
2017-08-02T03:51:39.594Z,8
2017-08-02T03:52:49.222Z,12
2017-08-02T03:53:59.156Z,12
2017-08-02T03:55:08.919Z,12
2017-08-02T03:56:18.542Z,16
2017-08-02T03:57:28.157Z,16
2017-08-02T03:58:38.078Z,20
2017-08-02T03:59:47.694Z,20
2017-08-02T04:00:57.712Z,20
2017-08-02T04:02:07.940Z,24
2017-08-02T04:03:17.550Z,24
2017-08-02T04:04:27.171Z,28
2017-08-02T04:05:37.403Z,32
2017-08-02T04:06:47.783Z,32
2017-08-02T04:07:57.698Z,36
2017-08-02T04:09:07.610Z,36
2017-08-02T04:10:17.536Z,44
2017-08-02T04:11:27.460Z,48
2017-08-02T04:12:38.226Z,48
2017-08-02T04:13:48.456Z,52
2017-08-02T04:14:58.069Z,56
2017-08-02T04:16:07.377Z,60
2017-08-02T04:17:17.301Z,68
2017-08-02T04:18:27.249Z,76
2017-08-02T04:19:36.865Z,80
2017-08-02T04:20:46.792Z,92
2017-08-02T04:21:57.020Z,104
2017-08-02T04:23:06.949Z,116
2017-08-02T04:24:17.204Z,120
2017-08-02T04:25:26.809Z,120
2017-08-02T04:26:36.112Z,120
2017-08-02T04:27:45.746Z,124
2017-08-02T04:28:55.675Z,124
2017-08-02T04:30:06.055Z,124
2017-08-02T04:31:15.967Z,124
2017-08-02T04:32:25.901Z,128
2017-08-02T04:33:35.821Z,140
2017-08-02T04:34:45.738Z,176
2017-08-02T04:35:55.948Z,208
2017-08-02T04:37:06.195Z,228
2017-08-02T04:38:16.117Z,244
2017-08-02T04:39:26.341Z,268
2017-08-02T04:40:35.652Z,312
2017-08-02T04:41:45.564Z,336
2017-08-02T04:42:55.809Z,364
2017-08-02T04:44:05.441Z,408
2017-08-02T04:45:15.670Z,436
2017-08-02T04:46:25.898Z,456
2017-08-02T04:47:35.996Z,444
2017-08-02T04:48:46.229Z,436
2017-08-02T04:49:56.464Z,460
2017-08-02T04:51:06.383Z,444
2017-08-02T04:52:16.314Z,436
2017-08-02T04:53:26.330Z,460
2017-08-02T04:54:35.940Z,488
2017-08-02T04:55:46.167Z,516
2017-08-02T04:56:55.768Z,504
2017-08-02T04:58:06.022Z,400
2017-08-02T04:59:15.986Z,344
2017-08-02T05:00:26.215Z,312
2017-08-02T05:01:36.444Z,284
2017-08-02T05:02:46.363Z,260
2017-08-02T05:03:56.289Z,284
2017-08-02T05:05:06.366Z,340
2017-08-02T05:06:15.975Z,376
2017-08-02T05:07:25.580Z,372
2017-08-02T05:08:35.806Z,372
2017-08-02T05:09:46.026Z,404
2017-08-02T05:10:55.943Z,436
2017-08-02T05:12:06.173Z,496
2017-08-02T05:13:16.406Z,548
2017-08-02T05:14:26.327Z,588
2017-08-02T05:15:36.233Z,584
2017-08-02T05:16:46.600Z,588
2017-08-02T05:17:56.221Z,628
2017-08-02T05:19:06.460Z,728
2017-08-02T05:20:16.381Z,804
2017-08-02T05:21:26.297Z,924
2017-08-02T05:22:36.524Z,1160
2017-08-02T05:23:46.751Z,1432
2017-08-02T05:24:56.672Z,1548
2017-08-02T05:26:06.897Z,1548
2017-08-02T05:27:16.503Z,1532
2017-08-02T05:28:26.742Z,2260
2017-08-02T05:29:36.963Z,2088
2017-08-02T05:30:46.893Z,1976
2017-08-02T05:31:57.131Z,996
2017-08-02T05:33:06.749Z,1060
2017-08-02T05:34:16.657Z,804
2017-08-02T05:35:26.265Z,624
2017-08-02T05:36:35.868Z,580
2017-08-02T05:37:45.798Z,544
2017-08-02T05:38:55.715Z,544
2017-08-02T05:40:05.437Z,492
2017-08-02T05:41:15.362Z,640
2017-08-02T05:42:25.319Z,752
2017-08-02T05:43:35.575Z,632
2017-08-02T05:44:45.801Z,604
2017-08-02T05:45:55.790Z,704
2017-08-02T05:47:05.704Z,696
2017-08-02T05:48:15.621Z,792
2017-08-02T05:49:25.857Z,920
2017-08-02T05:50:35.775Z,1016
2017-08-02T05:51:45.860Z,1096
2017-08-02T05:52:56.079Z,1032
2017-08-02T05:54:05.381Z,1160
2017-08-02T05:55:15.020Z,1328
2017-08-02T05:56:25.270Z,1176
2017-08-02T05:57:34.912Z,1108
2017-08-02T05:58:44.876Z,996
2017-08-02T05:59:54.834Z,1052
2017-08-02T06:01:05.072Z,988
2017-08-02T06:02:15.333Z,1020
2017-08-02T06:03:25.575Z,1092
2017-08-02T06:04:35.516Z,1172
2017-08-02T06:05:45.446Z,1116
2017-08-02T06:06:55.375Z,1344
2017-08-02T06:08:05.061Z,1100
2017-08-02T06:09:14.555Z,848
2017-08-02T06:10:24.212Z,816
2017-08-02T06:11:34.193Z,1184
2017-08-02T06:12:43.878Z,876
2017-08-02T06:13:53.571Z,992
2017-08-02T06:15:02.893Z,1080
2017-08-02T06:16:12.807Z,1292
2017-08-02T06:17:22.808Z,1036
2017-08-02T06:18:32.417Z,1308
2017-08-02T06:19:42.778Z,1364
2017-08-02T06:20:53.166Z,1192
2017-08-02T06:22:03.089Z,992
2017-08-02T06:23:12.745Z,1004
2017-08-02T06:24:22.704Z,2580
2017-08-02T06:25:32.656Z,1560
2017-08-02T06:26:42.691Z,1544
2017-08-02T06:27:52.614Z,1200
2017-08-02T06:29:02.620Z,9284
2017-08-02T06:30:12.560Z,4080
2017-08-02T06:31:22.901Z,1216
2017-08-02T06:32:32.921Z,2796
2017-08-02T06:33:43.164Z,1380
2017-08-02T06:34:52.788Z,1780
2017-08-02T06:36:03.027Z,1940
2017-08-02T06:37:12.990Z,1944
2017-08-02T06:38:22.981Z,2264
2017-08-02T06:39:32.653Z,2276
2017-08-02T06:40:42.272Z,2368
2017-08-02T06:41:51.918Z,1836
2017-08-02T06:43:01.857Z,1452
2017-08-02T06:44:11.348Z,1440
2017-08-02T06:45:21.340Z,1632
2017-08-02T06:46:31.293Z,1756
2017-08-02T06:47:41.207Z,1364
2017-08-02T06:48:51.139Z,1136
2017-08-02T06:50:00.836Z,1216
2017-08-02T06:51:11.076Z,1568
2017-08-02T06:52:21.056Z,1736
2017-08-02T06:53:30.424Z,1888
2017-08-02T06:54:40.694Z,1796
2017-08-02T06:55:50.610Z,2296
2017-08-02T06:57:00.237Z,2072
2017-08-02T06:58:10.483Z,1748
2017-08-02T06:59:20.424Z,1860
2017-08-02T07:00:30.345Z,1804
2017-08-02T07:01:39.957Z,2240
2017-08-02T07:02:49.571Z,2104
2017-08-02T07:03:59.243Z,1784
2017-08-02T07:05:09.175Z,1952
2017-08-02T07:06:19.412Z,2324
2017-08-02T07:07:29.079Z,3056
2017-08-02T07:08:39.021Z,3152
2017-08-02T07:09:48.644Z,2912
2017-08-02T07:10:58.265Z,2052
2017-08-02T07:12:08.245Z,2652
2017-08-02T07:13:18.328Z,2612
2017-08-02T07:14:27.945Z,3500
2017-08-02T07:15:37.898Z,5268
2017-08-02T07:16:47.840Z,11284
2017-08-02T07:17:58.068Z,9352
2017-08-02T07:19:08.048Z,5108
2017-08-02T07:20:18.276Z,6744
2017-08-02T07:21:27.908Z,7600
2017-08-02T07:22:37.544Z,10104
2017-08-02T07:23:47.460Z,12524
2017-08-02T07:24:57.757Z,5608
2017-08-02T07:26:07.065Z,2772
2017-08-02T07:27:17.005Z,2368
2017-08-02T07:28:26.624Z,2132
2017-08-02T07:29:36.865Z,2204
2017-08-02T07:30:46.498Z,2072
2017-08-02T07:31:56.227Z,1992
2017-08-02T07:33:06.486Z,2580
2017-08-02T07:34:16.820Z,2220
2017-08-02T07:35:26.834Z,2552
2017-08-02T07:36:36.922Z,2436
2017-08-02T07:37:47.180Z,2912
2017-08-02T07:38:57.446Z,4252
2017-08-02T07:40:07.062Z,13704
2017-08-02T07:41:17.019Z,9008
2017-08-02T07:42:27.393Z,2684
2017-08-02T07:43:37.049Z,4980
2017-08-02T07:44:46.977Z,6800
2017-08-02T07:45:56.921Z,6804
2017-08-02T07:47:06.876Z,2660
2017-08-02T07:48:16.915Z,2152
2017-08-02T07:49:26.562Z,1692
2017-08-02T07:50:36.342Z,1392
2017-08-02T07:51:45.686Z,1648
2017-08-02T07:52:55.374Z,2372
2017-08-02T07:54:05.306Z,7308
2017-08-02T07:55:15.323Z,8904
2017-08-02T07:56:25.593Z,2700
2017-08-02T07:57:35.539Z,6956
2017-08-02T07:58:45.779Z,1588
2017-08-02T07:59:55.701Z,3324
2017-08-02T08:01:05.572Z,3212
2017-08-02T08:02:15.302Z,1876
2017-08-02T08:03:25.279Z,2048
2017-08-02T08:04:35.272Z,1572
2017-08-02T08:05:45.344Z,2200
2017-08-02T08:06:55.326Z,4676
2017-08-02T08:08:05.300Z,1824
2017-08-02T08:09:15.295Z,1640
2017-08-02T08:10:25.695Z,2148
2017-08-02T08:11:35.807Z,2504
2017-08-02T08:12:45.779Z,2924
2017-08-02T08:13:56.024Z,3352
2017-08-02T08:15:05.381Z,5532
2017-08-02T08:16:15.614Z,6472
2017-08-02T08:17:27.127Z,9748
2017-08-02T08:18:37.851Z,1796
2017-08-02T08:19:48.233Z,2172
2017-08-02T08:20:58.453Z,2216
2017-08-02T08:22:08.378Z,2704
2017-08-02T08:23:18.828Z,3296
2017-08-02T08:24:28.789Z,3560
2017-08-02T08:25:38.830Z,4460
2017-08-02T08:26:48.777Z,4976
2017-08-02T08:27:58.428Z,4024
2017-08-02T08:29:08.558Z,4460
2017-08-02T08:30:18.863Z,4488
2017-08-02T08:31:28.868Z,3692
2017-08-02T08:32:38.196Z,3212
2017-08-02T08:33:48.255Z,3296
2017-08-02T08:34:58.571Z,2376
2017-08-02T08:36:08.805Z,2044
2017-08-02T08:37:19.048Z,2080
2017-08-02T08:38:29.291Z,2480
2017-08-02T08:39:38.939Z,2928
2017-08-02T08:40:49.307Z,3092
2017-08-02T08:41:58.927Z,3220
2017-08-02T08:43:08.545Z,3100
2017-08-02T08:44:17.934Z,3000
2017-08-02T08:45:27.547Z,2808
2017-08-02T08:46:37.923Z,2692
2017-08-02T08:47:47.887Z,2596
2017-08-02T08:48:58.277Z,2616
2017-08-02T08:50:08.599Z,2652
2017-08-02T08:51:18.569Z,2680
2017-08-02T08:52:28.886Z,2680
2017-08-02T08:53:38.820Z,2512
2017-08-02T08:54:49.074Z,2316
2017-08-02T08:55:58.413Z,2196
2017-08-02T08:57:08.731Z,2256
2017-08-02T08:58:18.835Z,2204
2017-08-02T08:59:28.487Z,2108
2017-08-02T09:00:37.859Z,2124
2017-08-02T09:01:47.867Z,2216
2017-08-02T09:02:57.506Z,2692
2017-08-02T09:04:07.303Z,2664
2017-08-02T09:05:16.350Z,2452
2017-08-02T09:06:26.630Z,1968
2017-08-02T09:07:36.401Z,1508
2017-08-02T09:08:46.324Z,1572
2017-08-02T09:09:56.559Z,1788
2017-08-02T09:11:06.811Z,1744
2017-08-02T09:12:16.789Z,1688
2017-08-02T09:13:26.408Z,1672
2017-08-02T09:14:36.378Z,1504
2017-08-02T09:15:45.860Z,1368
2017-08-02T09:16:55.813Z,1428
2017-08-02T09:18:05.454Z,1424
2017-08-02T09:19:15.081Z,1480
2017-08-02T09:20:25.364Z,1496
2017-08-02T09:21:35.125Z,1492
2017-08-02T09:22:45.427Z,1512
2017-08-02T09:23:55.698Z,1524
2017-08-02T09:25:05.931Z,1524
2017-08-02T09:26:15.564Z,1432
2017-08-02T09:27:26.078Z,1360
2017-08-02T09:28:35.694Z,1344
2017-08-02T09:29:45.634Z,1376
2017-08-02T09:30:55.305Z,1292
2017-08-02T09:32:04.926Z,1208
2017-08-02T09:33:14.608Z,1320
2017-08-02T09:34:24.541Z,1452
2017-08-02T09:35:33.851Z,1488
2017-08-02T09:36:43.489Z,1472
2017-08-02T09:37:53.723Z,1428
2017-08-02T09:39:04.115Z,1408
2017-08-02T09:40:13.730Z,1456
2017-08-02T09:41:23.670Z,1504
2017-08-02T09:42:33.603Z,1468
2017-08-02T09:43:43.521Z,1412
2017-08-02T09:44:53.797Z,1532
2017-08-02T09:46:04.043Z,1672
2017-08-02T09:47:13.991Z,1716
2017-08-02T09:48:23.631Z,1728
2017-08-02T09:49:33.595Z,1584
2017-08-02T09:50:43.849Z,1612
2017-08-02T09:51:53.477Z,1716
2017-08-02T09:53:03.703Z,1860
2017-08-02T09:54:13.336Z,2084
2017-08-02T09:55:23.569Z,2304
2017-08-02T09:56:33.282Z,2384
2017-08-02T09:57:43.525Z,2364
2017-08-02T09:58:53.868Z,2272
2017-08-02T10:00:04.098Z,2128
2017-08-02T10:01:13.412Z,2092
2017-08-02T10:02:23.487Z,2168
2017-08-02T10:03:32.819Z,2236
2017-08-02T10:04:43.077Z,2256
2017-08-02T10:05:53.058Z,2204
2017-08-02T10:07:03.023Z,2208
2017-08-02T10:08:13.148Z,2224
2017-08-02T10:09:23.096Z,2208
2017-08-02T10:10:32.474Z,2148
2017-08-02T10:11:42.176Z,2024
2017-08-02T10:12:51.512Z,2032
2017-08-02T10:14:01.142Z,2080
2017-08-02T10:15:10.795Z,2228
2017-08-02T10:16:20.732Z,2412
2017-08-02T10:17:30.082Z,2432
2017-08-02T10:18:39.748Z,2240
2017-08-02T10:19:49.523Z,2276
2017-08-02T10:20:58.854Z,2216
2017-08-02T10:22:09.080Z,2220
2017-08-02T10:23:18.399Z,2240
2017-08-02T10:24:27.716Z,2352
2017-08-02T10:25:37.402Z,2440
2017-08-02T10:26:47.492Z,2376
2017-08-02T10:27:57.121Z,2364
2017-08-02T10:29:06.910Z,2348
2017-08-02T10:30:16.562Z,2264
2017-08-02T10:31:26.962Z,2164
2017-08-02T10:32:36.944Z,2032
2017-08-02T10:33:46.297Z,1956
2017-08-02T10:34:56.253Z,1960
2017-08-02T10:36:06.269Z,2012
2017-08-02T10:37:15.998Z,2076
2017-08-02T10:38:25.946Z,2080
2017-08-02T10:39:35.573Z,1980
2017-08-02T10:40:44.984Z,1900
2017-08-02T10:41:54.300Z,1880
2017-08-02T10:43:03.917Z,2000
2017-08-02T10:44:13.841Z,2000
2017-08-02T10:45:24.131Z,2124
2017-08-02T10:46:33.765Z,2284
2017-08-02T10:47:43.384Z,2348
2017-08-02T10:48:54.078Z,1996
2017-08-02T10:50:04.327Z,1940
2017-08-02T10:51:13.649Z,2096
2017-08-02T10:52:23.284Z,2116
2017-08-02T10:53:33.517Z,1968
2017-08-02T10:54:43.041Z,1656
2017-08-02T10:55:53.000Z,1552
2017-08-02T10:57:02.328Z,1360
2017-08-02T10:58:11.756Z,1316
2017-08-02T10:59:22.032Z,1196
2017-08-02T11:00:32.281Z,1300
2017-08-02T11:01:42.589Z,1500
2017-08-02T11:02:52.636Z,1912
2017-08-02T11:04:02.963Z,1932
2017-08-02T11:05:12.911Z,1928
2017-08-02T11:06:23.019Z,2032
2017-08-02T11:07:32.644Z,2084
2017-08-02T11:08:42.570Z,2104
2017-08-02T11:09:52.187Z,1748
2017-08-02T11:11:02.112Z,1508
2017-08-02T11:12:12.414Z,1760
2017-08-02T11:13:22.648Z,1980
2017-08-02T11:14:32.574Z,1976
2017-08-02T11:15:42.180Z,1884
2017-08-02T11:16:52.102Z,1776
2017-08-02T11:18:01.871Z,1724
2017-08-02T11:19:11.795Z,1712
2017-08-02T11:20:22.032Z,1688
2017-08-02T11:21:31.662Z,1640
2017-08-02T11:22:41.892Z,1516
2017-08-02T11:23:51.871Z,1544
2017-08-02T11:25:01.183Z,1612
2017-08-02T11:26:11.121Z,1660
2017-08-02T11:27:21.372Z,1664
2017-08-02T11:28:31.627Z,1596
2017-08-02T11:29:41.713Z,1540
2017-08-02T11:30:51.634Z,1636
2017-08-02T11:32:01.610Z,1800
2017-08-02T11:33:11.529Z,1908
2017-08-02T11:34:21.446Z,1908
2017-08-02T11:35:31.132Z,1880
2017-08-02T11:36:41.360Z,1988
2017-08-02T11:37:51.001Z,2068
2017-08-02T11:39:00.347Z,2004
2017-08-02T11:40:10.278Z,2036
2017-08-02T11:41:20.529Z,1956
2017-08-02T11:42:30.549Z,1816
2017-08-02T11:43:40.472Z,1720
2017-08-02T11:44:50.719Z,1696
2017-08-02T11:46:00.376Z,1736
2017-08-02T11:47:10.912Z,1592
2017-08-02T11:48:20.843Z,1516
2017-08-02T11:49:30.884Z,1400
2017-08-02T11:50:40.823Z,1392
2017-08-02T11:51:50.765Z,1488
2017-08-02T11:53:01.047Z,1468
2017-08-02T11:54:10.072Z,1396
2017-08-02T11:55:20.370Z,1364
2017-08-02T11:56:30.632Z,1380
2017-08-02T11:57:40.565Z,1284
2017-08-02T11:58:50.145Z,1184
2017-08-02T12:00:00.393Z,1196
2017-08-02T12:01:10.652Z,1272
2017-08-02T12:02:20.655Z,1404
2017-08-02T12:03:30.883Z,1644
2017-08-02T12:04:41.424Z,1780
2017-08-02T12:05:51.471Z,1888
2017-08-02T12:07:01.702Z,1884
2017-08-02T12:08:11.640Z,1828
2017-08-02T12:09:21.326Z,1704
2017-08-02T12:10:31.720Z,1656
2017-08-02T12:11:41.966Z,1656
2017-08-02T12:12:51.578Z,1680
2017-08-02T12:14:01.634Z,1600
2017-08-02T12:15:11.582Z,1520
2017-08-02T12:16:21.590Z,1560
2017-08-02T12:17:31.577Z,1644
2017-08-02T12:18:41.230Z,1636
2017-08-02T12:19:51.164Z,1668
2017-08-02T12:21:01.499Z,1796
2017-08-02T12:22:12.045Z,1928
2017-08-02T12:23:22.040Z,1900
2017-08-02T12:24:32.041Z,1892
2017-08-02T12:25:42.229Z,1876
2017-08-02T12:26:52.153Z,1768
2017-08-02T12:28:01.632Z,1676
2017-08-02T12:29:11.560Z,1568
2017-08-02T12:30:21.479Z,1660
2017-08-02T12:31:31.884Z,1744
2017-08-02T12:32:42.125Z,1732
2017-08-02T12:33:51.964Z,1780
2017-08-02T12:35:02.194Z,1828
2017-08-02T12:36:12.446Z,1860
2017-08-02T12:37:22.059Z,1848
2017-08-02T12:38:32.111Z,1864
2017-08-02T12:39:42.451Z,1848
2017-08-02T12:40:52.691Z,1788
2017-08-02T12:42:02.306Z,1776
2017-08-02T12:43:12.264Z,1800
2017-08-02T12:44:22.530Z,1824
2017-08-02T12:45:31.848Z,1828
2017-08-02T12:46:41.466Z,1792
2017-08-02T12:47:50.879Z,1744
2017-08-02T12:49:00.933Z,1732
2017-08-02T12:50:10.875Z,1676
2017-08-02T12:51:20.935Z,1628
2017-08-02T12:52:30.243Z,1624
2017-08-02T12:53:40.446Z,1756
2017-08-02T12:54:50.382Z,1804
2017-08-02T12:56:00.345Z,1820
2017-08-02T12:57:10.572Z,1884
2017-08-02T12:58:20.262Z,1920
2017-08-02T12:59:29.783Z,1892
2017-08-02T13:00:40.035Z,1664
2017-08-02T13:01:49.666Z,1580
2017-08-02T13:02:59.360Z,1628
2017-08-02T13:04:09.597Z,1660
2017-08-02T13:05:19.525Z,1752
2017-08-02T13:06:29.141Z,1796
2017-08-02T13:07:39.065Z,1728
2017-08-02T13:08:49.299Z,1696
2017-08-02T13:09:58.919Z,1664
2017-08-02T13:11:08.544Z,1500
2017-08-02T13:12:18.772Z,1332
2017-08-02T13:13:28.394Z,1260
2017-08-02T13:14:38.771Z,1196
2017-08-02T13:15:48.990Z,1208
2017-08-02T13:16:58.907Z,1244
2017-08-02T13:18:08.826Z,1344
2017-08-02T13:19:18.459Z,1412
2017-08-02T13:20:28.558Z,1368
2017-08-02T13:21:38.790Z,1356
2017-08-02T13:22:49.026Z,1332
2017-08-02T13:23:59.038Z,1236
2017-08-02T13:25:09.430Z,1132
2017-08-02T13:26:19.312Z,1092
2017-08-02T13:27:29.233Z,1096
2017-08-02T13:28:39.325Z,1156
2017-08-02T13:29:48.731Z,1212
2017-08-02T13:30:58.350Z,1172
2017-08-02T13:32:08.376Z,1056
2017-08-02T13:33:18.589Z,964
2017-08-02T13:34:28.836Z,1048
2017-08-02T13:35:38.781Z,1128
2017-08-02T13:36:48.393Z,1128
2017-08-02T13:37:57.815Z,1108
2017-08-02T13:39:08.068Z,1060
2017-08-02T13:40:17.986Z,1052
2017-08-02T13:41:27.908Z,1108
2017-08-02T13:42:38.667Z,1144
2017-08-02T13:43:48.497Z,1096
2017-08-02T13:44:58.852Z,1136
2017-08-02T13:46:08.770Z,1280
2017-08-02T13:47:18.420Z,1288
2017-08-02T13:48:28.348Z,1252
2017-08-02T13:49:38.466Z,1204
2017-08-02T13:50:48.385Z,1132
2017-08-02T13:51:58.637Z,1148
2017-08-02T13:53:08.569Z,1224
2017-08-02T13:54:18.490Z,1304
2017-08-02T13:55:28.454Z,1352
2017-08-02T13:56:38.062Z,1424
2017-08-02T13:57:47.980Z,1536
2017-08-02T13:58:58.271Z,1492
2017-08-02T14:00:08.500Z,1536
2017-08-02T14:01:18.107Z,1540
2017-08-02T14:02:28.381Z,1480
2017-08-02T14:03:37.378Z,1376
2017-08-02T14:04:47.639Z,1380
2017-08-02T14:05:56.632Z,1328
2017-08-02T14:07:06.704Z,1264
2017-08-02T14:08:16.661Z,1244
2017-08-02T14:09:26.579Z,1280
2017-08-02T14:10:36.825Z,1264
2017-08-02T14:11:46.762Z,1232
2017-08-02T14:12:56.437Z,1216
2017-08-02T14:14:06.373Z,1188
2017-08-02T14:15:15.997Z,1176
2017-08-02T14:16:25.624Z,1188
2017-08-02T14:17:35.923Z,1200
2017-08-02T14:18:45.663Z,1184
2017-08-02T14:19:55.012Z,1184
2017-08-02T14:21:05.238Z,1212
2017-08-02T14:22:15.187Z,1184
2017-08-02T14:23:25.109Z,1084
2017-08-02T14:24:34.483Z,960
2017-08-02T14:25:44.731Z,792
2017-08-02T14:26:54.961Z,672
2017-08-02T14:28:05.198Z,612
2017-08-02T14:29:15.130Z,592
2017-08-02T14:30:25.086Z,592
2017-08-02T14:31:35.326Z,652
2017-08-02T14:32:45.553Z,632
2017-08-02T14:33:55.526Z,616
2017-08-02T14:35:04.871Z,616
2017-08-02T14:36:15.273Z,644
2017-08-02T14:37:25.505Z,688
2017-08-02T14:38:35.736Z,716
2017-08-02T14:39:45.653Z,720
2017-08-02T14:40:55.869Z,744
2017-08-02T14:42:05.815Z,772
2017-08-02T14:43:15.767Z,784
2017-08-02T14:44:25.688Z,820
2017-08-02T14:45:35.302Z,920
2017-08-02T14:46:45.231Z,1012
2017-08-02T14:47:54.708Z,1040
2017-08-02T14:49:04.662Z,1000
2017-08-02T14:50:14.262Z,888
2017-08-02T14:51:24.192Z,824
2017-08-02T14:52:34.409Z,712
2017-08-02T14:53:44.454Z,640
2017-08-02T14:54:54.068Z,620
2017-08-02T14:56:03.998Z,612
2017-08-02T14:57:13.917Z,616
2017-08-02T14:58:23.573Z,664
2017-08-02T14:59:33.023Z,724
2017-08-02T15:00:42.957Z,772
2017-08-02T15:01:53.179Z,828
2017-08-02T15:03:02.802Z,816
2017-08-02T15:04:12.723Z,708
2017-08-02T15:05:22.796Z,608
2017-08-02T15:06:32.716Z,568
2017-08-02T15:07:42.952Z,556
2017-08-02T15:08:52.878Z,584
2017-08-02T15:10:02.814Z,668
2017-08-02T15:11:13.192Z,760
2017-08-02T15:12:23.121Z,792
2017-08-02T15:13:32.781Z,744
2017-08-02T15:14:42.410Z,636
2017-08-02T15:15:52.328Z,572
2017-08-02T15:17:02.355Z,544
2017-08-02T15:18:12.589Z,524
2017-08-02T15:19:22.512Z,552
2017-08-02T15:20:32.188Z,640
2017-08-02T15:21:42.107Z,760
2017-08-02T15:22:52.344Z,836
2017-08-02T15:24:02.268Z,800
2017-08-02T15:25:11.894Z,780
2017-08-02T15:26:22.134Z,852
2017-08-02T15:27:32.054Z,912
2017-08-02T15:28:42.184Z,960
2017-08-02T15:29:52.402Z,968
2017-08-02T15:31:02.673Z,984
2017-08-02T15:32:12.605Z,884
2017-08-02T15:33:22.539Z,852
2017-08-02T15:34:32.161Z,844
2017-08-02T15:35:42.744Z,820
2017-08-02T15:36:52.659Z,752
2017-08-02T15:38:02.584Z,684
2017-08-02T15:39:12.228Z,612
2017-08-02T15:40:22.152Z,568
2017-08-02T15:41:32.071Z,496
2017-08-02T15:42:41.385Z,472
2017-08-02T15:43:51.298Z,484
2017-08-02T15:45:01.530Z,524
2017-08-02T15:46:11.913Z,484
2017-08-02T15:47:22.147Z,440
2017-08-02T15:48:32.379Z,388
2017-08-02T15:49:42.612Z,408
2017-08-02T15:50:52.846Z,472
2017-08-02T15:52:02.791Z,456
2017-08-02T15:53:12.416Z,432
2017-08-02T15:54:21.727Z,404
2017-08-02T15:55:31.334Z,392
2017-08-02T15:56:41.252Z,496
2017-08-02T15:57:51.486Z,532
2017-08-02T15:59:01.409Z,544
2017-08-02T16:00:11.025Z,624
2017-08-02T16:01:20.961Z,592
2017-08-02T16:02:30.580Z,548